sensor_id;sensor_type;location;lat;lon;timestamp;P1;durP1;ratioP1;P2;durP2;ratioP2
17927;SDS011;9089;58.396;15.544;2022-11-18T00:00:14;1.85;;;1.67;;
17927;SDS011;9089;58.396;15.544;2022-11-18T00:02:39;1.88;;;1.20;;
17927;SDS011;9089;58.396;15.544;2022-11-18T00:05:05;1.50;;;1.40;;
17927;SDS011;9089;58.396;15.544;2022-11-18T00:07:30;1.70;;;1.33;;
17927;SDS011;9089;58.396;15.544;2022-11-18T00:09:56;1.63;;;1.52;;
17927;SDS011;9089;58.396;15.544;2022-11-18T00:12:23;2.67;;;1.30;;
17927;SDS011;9089;58.396;15.544;2022-11-18T00:15:07;1.38;;;1.25;;
17927;SDS011;9089;58.396;15.544;2022-11-18T00:17:32;1.73;;;1.60;;
17927;SDS011;9089;58.396;15.544;2022-11-18T00:19:58;1.45;;;1.33;;
17927;SDS011;9089;58.396;15.544;2022-11-18T00:22:23;1.27;;;1.20;;
17927;SDS011;9089;58.396;15.544;2022-11-18T00:24:49;1.27;;;1.17;;
17927;SDS011;9089;58.396;15.544;2022-11-18T00:27:14;1.90;;;1.23;;
17927;SDS011;9089;58.396;15.544;2022-11-18T00:29:41;1.77;;;1.40;;
17927;SDS011;9089;58.396;15.544;2022-11-18T00:32:07;1.30;;;1.20;;
17927;SDS011;9089;58.396;15.544;2022-11-18T00:34:32;1.55;;;1.38;;
17927;SDS011;9089;58.396;15.544;2022-11-18T00:36:57;3.25;;;1.40;;
17927;SDS011;9089;58.396;15.544;2022-11-18T00:39:23;1.60;;;1.50;;
17927;SDS011;9089;58.396;15.544;2022-11-18T00:41:50;1.35;;;1.20;;
17927;SDS011;9089;58.396;15.544;2022-11-18T00:44:34;1.50;;;1.40;;
17927;SDS011;9089;58.396;15.544;2022-11-18T00:47:01;1.65;;;1.55;;
17927;SDS011;9089;58.396;15.544;2022-11-18T00:49:26;3.50;;;1.38;;
17927;SDS011;9089;58.396;15.544;2022-11-18T00:51:52;1.52;;;1.40;;
17927;SDS011;9089;58.396;15.544;2022-11-18T00:54:17;1.63;;;1.52;;
17927;SDS011;9089;58.396;15.544;2022-11-18T00:56:43;1.73;;;1.63;;
17927;SDS011;9089;58.396;15.544;2022-11-18T00:59:08;1.65;;;1.33;;
17927;SDS011;9089;58.396;15.544;2022-11-18T01:01:33;1.50;;;1.40;;
17927;SDS011;9089;58.396;15.544;2022-11-18T01:04:00;1.58;;;1.30;;
17927;SDS011;9089;58.396;15.544;2022-11-18T01:06:26;1.88;;;1.67;;
17927;SDS011;9089;58.396;15.544;2022-11-18T01:08:51;1.50;;;1.40;;
17927;SDS011;9089;58.396;15.544;2022-11-18T01:11:17;1.80;;;1.70;;
17927;SDS011;9089;58.396;15.544;2022-11-18T01:14:00;1.65;;;1.40;;
17927;SDS011;9089;58.396;15.544;2022-11-18T01:16:26;1.80;;;1.60;;
17927;SDS011;9089;58.396;15.544;2022-11-18T01:18:52;3.10;;;1.75;;
17927;SDS011;9089;58.396;15.544;2022-11-18T01:21:19;1.95;;;1.33;;
17927;SDS011;9089;58.396;15.544;2022-11-18T01:23:44;2.28;;;1.52;;
17927;SDS011;9089;58.396;15.544;2022-11-18T01:26:11;1.52;;;1.42;;
17927;SDS011;9089;58.396;15.544;2022-11-18T01:28:36;2.15;;;1.70;;
17927;SDS011;9089;58.396;15.544;2022-11-18T01:31:02;1.70;;;1.60;;
17927;SDS011;9089;58.396;15.544;2022-11-18T01:33:28;2.30;;;1.83;;
17927;SDS011;9089;58.396;15.544;2022-11-18T01:35:53;1.67;;;1.58;;
17927;SDS011;9089;58.396;15.544;2022-11-18T01:38:20;1.73;;;1.63;;
17927;SDS011;9089;58.396;15.544;2022-11-18T01:40:45;1.73;;;1.63;;
17927;SDS011;9089;58.396;15.544;2022-11-18T01:43:11;1.85;;;1.75;;
17927;SDS011;9089;58.396;15.544;2022-11-18T01:45:37;2.00;;;1.80;;
17927;SDS011;9089;58.396;15.544;2022-11-18T01:48:04;2.30;;;1.80;;
17927;SDS011;9089;58.396;15.544;2022-11-18T01:50:30;2.28;;;1.83;;
17927;SDS011;9089;58.396;15.544;2022-11-18T01:52:57;2.22;;;1.95;;
17927;SDS011;9089;58.396;15.544;2022-11-18T01:55:26;2.40;;;1.88;;
17927;SDS011;9089;58.396;15.544;2022-11-18T01:58:00;1.88;;;1.70;;
17927;SDS011;9089;58.396;15.544;2022-11-18T02:00:27;2.40;;;2.10;;
17927;SDS011;9089;58.396;15.544;2022-11-18T02:02:52;1.90;;;1.67;;
17927;SDS011;9089;58.396;15.544;2022-11-18T02:05:18;2.30;;;2.10;;
17927;SDS011;9089;58.396;15.544;2022-11-18T02:07:44;2.00;;;1.80;;
17927;SDS011;9089;58.396;15.544;2022-11-18T02:10:16;1.90;;;1.80;;
17927;SDS011;9089;58.396;15.544;2022-11-18T02:12:43;2.30;;;2.10;;
17927;SDS011;9089;58.396;15.544;2022-11-18T02:15:09;2.00;;;1.90;;
17927;SDS011;9089;58.396;15.544;2022-11-18T02:17:37;2.38;;;2.20;;
17927;SDS011;9089;58.396;15.544;2022-11-18T02:23:02;2.88;;;2.10;;
17927;SDS011;9089;58.396;15.544;2022-11-18T02:25:30;1.92;;;1.83;;
17927;SDS011;9089;58.396;15.544;2022-11-18T02:28:10;2.17;;;2.08;;
17927;SDS011;9089;58.396;15.544;2022-11-18T02:30:42;2.10;;;1.90;;
17927;SDS011;9089;58.396;15.544;2022-11-18T02:33:09;2.40;;;1.88;;
17927;SDS011;9089;58.396;15.544;2022-11-18T02:35:37;4.78;;;2.17;;
17927;SDS011;9089;58.396;15.544;2022-11-18T02:38:04;2.28;;;1.95;;
17927;SDS011;9089;58.396;15.544;2022-11-18T02:40:32;2.15;;;1.90;;
17927;SDS011;9089;58.396;15.544;2022-11-18T02:43:00;3.45;;;2.55;;
17927;SDS011;9089;58.396;15.544;2022-11-18T02:45:26;2.50;;;2.30;;
17927;SDS011;9089;58.396;15.544;2022-11-18T02:47:54;2.72;;;2.20;;
17927;SDS011;9089;58.396;15.544;2022-11-18T02:50:20;2.03;;;1.83;;
17927;SDS011;9089;58.396;15.544;2022-11-18T02:52:47;2.30;;;2.10;;
17927;SDS011;9089;58.396;15.544;2022-11-18T02:55:14;2.72;;;2.47;;
17927;SDS011;9089;58.396;15.544;2022-11-18T02:57:40;3.50;;;2.10;;
17927;SDS011;9089;58.396;15.544;2022-11-18T03:00:07;1.90;;;1.80;;
17927;SDS011;9089;58.396;15.544;2022-11-18T03:02:38;2.30;;;2.10;;
17927;SDS011;9089;58.396;15.544;2022-11-18T03:05:06;3.35;;;2.40;;
17927;SDS011;9089;58.396;15.544;2022-11-18T03:07:34;2.50;;;2.30;;
17927;SDS011;9089;58.396;15.544;2022-11-18T03:10:00;2.85;;;2.22;;
17927;SDS011;9089;58.396;15.544;2022-11-18T03:12:29;3.03;;;2.25;;
17927;SDS011;9089;58.396;15.544;2022-11-18T03:14:59;4.35;;;2.30;;
17927;SDS011;9089;58.396;15.544;2022-11-18T03:17:31;4.38;;;2.10;;
17927;SDS011;9089;58.396;15.544;2022-11-18T03:20:02;2.15;;;2.00;;
17927;SDS011;9089;58.396;15.544;2022-11-18T03:22:32;1.85;;;1.75;;
17927;SDS011;9089;58.396;15.544;2022-11-18T03:25:00;3.00;;;2.30;;
17927;SDS011;9089;58.396;15.544;2022-11-18T03:27:28;1.80;;;1.70;;
17927;SDS011;9089;58.396;15.544;2022-11-18T03:29:56;2.03;;;1.80;;
17927;SDS011;9089;58.396;15.544;2022-11-18T03:32:24;1.95;;;1.83;;
17927;SDS011;9089;58.396;15.544;2022-11-18T03:34:51;2.17;;;1.95;;
17927;SDS011;9089;58.396;15.544;2022-11-18T03:37:20;2.25;;;1.75;;
17927;SDS011;9089;58.396;15.544;2022-11-18T03:39:49;2.67;;;2.05;;
17927;SDS011;9089;58.396;15.544;2022-11-18T03:42:18;2.38;;;2.17;;
17927;SDS011;9089;58.396;15.544;2022-11-18T03:44:45;1.90;;;1.80;;
17927;SDS011;9089;58.396;15.544;2022-11-18T03:47:14;2.83;;;1.80;;
17927;SDS011;9089;58.396;15.544;2022-11-18T03:49:42;1.75;;;1.65;;
17927;SDS011;9089;58.396;15.544;2022-11-18T03:52:09;2.28;;;1.80;;
17927;SDS011;9089;58.396;15.544;2022-11-18T03:54:36;2.85;;;1.83;;
17927;SDS011;9089;58.396;15.544;2022-11-18T03:57:05;3.35;;;1.75;;
17927;SDS011;9089;58.396;15.544;2022-11-18T03:59:34;2.60;;;1.92;;
17927;SDS011;9089;58.396;15.544;2022-11-18T04:02:02;2.97;;;1.83;;
17927;SDS011;9089;58.396;15.544;2022-11-18T04:04:28;2.17;;;1.83;;
17927;SDS011;9089;58.396;15.544;2022-11-18T04:06:56;2.33;;;1.98;;
17927;SDS011;9089;58.396;15.544;2022-11-18T04:09:25;3.05;;;2.03;;
17927;SDS011;9089;58.396;15.544;2022-11-18T04:11:57;2.97;;;2.03;;
17927;SDS011;9089;58.396;15.544;2022-11-18T04:14:31;1.70;;;1.60;;
17927;SDS011;9089;58.396;15.544;2022-11-18T04:16:57;2.20;;;2.05;;
17927;SDS011;9089;58.396;15.544;2022-11-18T04:19:22;2.60;;;1.80;;
17927;SDS011;9089;58.396;15.544;2022-11-18T04:21:48;2.78;;;1.90;;
17927;SDS011;9089;58.396;15.544;2022-11-18T04:24:14;1.70;;;1.55;;
17927;SDS011;9089;58.396;15.544;2022-11-18T04:26:39;2.30;;;1.55;;
17927;SDS011;9089;58.396;15.544;2022-11-18T04:29:05;2.10;;;1.90;;
17927;SDS011;9089;58.396;15.544;2022-11-18T04:31:32;5.25;;;2.35;;
17927;SDS011;9089;58.396;15.544;2022-11-18T04:33:57;1.85;;;1.63;;
17927;SDS011;9089;58.396;15.544;2022-11-18T04:36:23;2.20;;;1.98;;
17927;SDS011;9089;58.396;15.544;2022-11-18T04:38:48;3.28;;;1.95;;
17927;SDS011;9089;58.396;15.544;2022-11-18T04:41:14;1.60;;;1.50;;
17927;SDS011;9089;58.396;15.544;2022-11-18T04:43:39;3.53;;;2.30;;
17927;SDS011;9089;58.396;15.544;2022-11-18T04:46:05;4.07;;;1.80;;
17927;SDS011;9089;58.396;15.544;2022-11-18T04:48:32;3.60;;;1.92;;
17927;SDS011;9089;58.396;15.544;2022-11-18T04:51:00;2.45;;;1.75;;
17927;SDS011;9089;58.396;15.544;2022-11-18T04:53:26;1.70;;;1.60;;
17927;SDS011;9089;58.396;15.544;2022-11-18T04:55:52;3.05;;;1.50;;
17927;SDS011;9089;58.396;15.544;2022-11-18T04:58:17;2.47;;;1.83;;
17927;SDS011;9089;58.396;15.544;2022-11-18T05:00:42;5.45;;;1.60;;
17927;SDS011;9089;58.396;15.544;2022-11-18T05:03:08;2.25;;;1.63;;
17927;SDS011;9089;58.396;15.544;2022-11-18T05:05:35;2.20;;;1.52;;
17927;SDS011;9089;58.396;15.544;2022-11-18T05:08:00;2.17;;;1.52;;
17927;SDS011;9089;58.396;15.544;2022-11-18T05:10:26;2.03;;;1.65;;
17927;SDS011;9089;58.396;15.544;2022-11-18T05:12:51;3.05;;;1.65;;
17927;SDS011;9089;58.396;15.544;2022-11-18T05:15:17;3.38;;;1.60;;
17927;SDS011;9089;58.396;15.544;2022-11-18T05:17:43;2.17;;;1.42;;
17927;SDS011;9089;58.396;15.544;2022-11-18T05:20:09;1.73;;;1.60;;
17927;SDS011;9089;58.396;15.544;2022-11-18T05:22:36;1.70;;;1.58;;
17927;SDS011;9089;58.396;15.544;2022-11-18T05:25:01;1.70;;;1.55;;
17927;SDS011;9089;58.396;15.544;2022-11-18T05:27:27;2.58;;;1.63;;
17927;SDS011;9089;58.396;15.544;2022-11-18T05:29:52;1.85;;;1.52;;
17927;SDS011;9089;58.396;15.544;2022-11-18T05:32:18;1.90;;;1.27;;
17927;SDS011;9089;58.396;15.544;2022-11-18T05:34:43;1.67;;;1.45;;
17927;SDS011;9089;58.396;15.544;2022-11-18T05:37:09;4.10;;;1.42;;
17927;SDS011;9089;58.396;15.544;2022-11-18T05:39:36;2.20;;;1.35;;
17927;SDS011;9089;58.396;15.544;2022-11-18T05:42:01;1.25;;;1.00;;
17927;SDS011;9089;58.396;15.544;2022-11-18T05:44:45;1.90;;;1.33;;
17927;SDS011;9089;58.396;15.544;2022-11-18T05:47:11;1.50;;;1.30;;
17927;SDS011;9089;58.396;15.544;2022-11-18T05:49:37;1.55;;;1.30;;
17927;SDS011;9089;58.396;15.544;2022-11-18T05:52:03;2.15;;;1.40;;
17927;SDS011;9089;58.396;15.544;2022-11-18T05:54:29;2.78;;;1.40;;
17927;SDS011;9089;58.396;15.544;2022-11-18T05:56:57;2.28;;;1.33;;
17927;SDS011;9089;58.396;15.544;2022-11-18T05:59:22;3.15;;;1.52;;
17927;SDS011;9089;58.396;15.544;2022-11-18T06:01:48;2.67;;;1.60;;
17927;SDS011;9089;58.396;15.544;2022-11-18T06:04:16;4.43;;;1.52;;
17927;SDS011;9089;58.396;15.544;2022-11-18T06:06:43;2.10;;;1.48;;
17927;SDS011;9089;58.396;15.544;2022-11-18T06:09:09;2.05;;;1.25;;
17927;SDS011;9089;58.396;15.544;2022-11-18T06:11:36;1.40;;;1.10;;
17927;SDS011;9089;58.396;15.544;2022-11-18T06:14:05;1.90;;;1.33;;
17927;SDS011;9089;58.396;15.544;2022-11-18T06:16:32;1.45;;;1.27;;
17927;SDS011;9089;58.396;15.544;2022-11-18T06:18:58;2.20;;;1.40;;
17927;SDS011;9089;58.396;15.544;2022-11-18T06:21:25;3.05;;;1.38;;
17927;SDS011;9089;58.396;15.544;2022-11-18T06:23:51;2.30;;;1.40;;
17927;SDS011;9089;58.396;15.544;2022-11-18T06:26:16;1.48;;;1.27;;
17927;SDS011;9089;58.396;15.544;2022-11-18T06:28:42;1.95;;;1.40;;
17927;SDS011;9089;58.396;15.544;2022-11-18T06:31:09;2.50;;;1.80;;
17927;SDS011;9089;58.396;15.544;2022-11-18T06:33:35;1.65;;;1.50;;
17927;SDS011;9089;58.396;15.544;2022-11-18T06:36:01;1.83;;;1.50;;
17927;SDS011;9089;58.396;15.544;2022-11-18T06:38:26;2.33;;;1.50;;
17927;SDS011;9089;58.396;15.544;2022-11-18T06:40:52;3.47;;;1.40;;
17927;SDS011;9089;58.396;15.544;2022-11-18T06:43:17;2.72;;;1.60;;
17927;SDS011;9089;58.396;15.544;2022-11-18T06:46:02;1.75;;;1.40;;
17927;SDS011;9089;58.396;15.544;2022-11-18T06:48:47;2.97;;;1.50;;
17927;SDS011;9089;58.396;15.544;2022-11-18T06:51:13;2.80;;;1.70;;
17927;SDS011;9089;58.396;15.544;2022-11-18T06:53:38;1.98;;;1.50;;
17927;SDS011;9089;58.396;15.544;2022-11-18T06:56:04;1.40;;;1.27;;
17927;SDS011;9089;58.396;15.544;2022-11-18T06:58:30;2.80;;;1.80;;
17927;SDS011;9089;58.396;15.544;2022-11-18T07:00:55;3.08;;;1.55;;
17927;SDS011;9089;58.396;15.544;2022-11-18T07:03:21;2.00;;;1.63;;
17927;SDS011;9089;58.396;15.544;2022-11-18T07:05:48;3.47;;;1.70;;
17927;SDS011;9089;58.396;15.544;2022-11-18T07:08:13;3.13;;;1.75;;
17927;SDS011;9089;58.396;15.544;2022-11-18T07:10:39;4.32;;;1.85;;
17927;SDS011;9089;58.396;15.544;2022-11-18T07:13:04;2.00;;;1.80;;
17927;SDS011;9089;58.396;15.544;2022-11-18T07:15:29;2.95;;;1.90;;
17927;SDS011;9089;58.396;15.544;2022-11-18T07:17:55;2.75;;;1.77;;
17927;SDS011;9089;58.396;15.544;2022-11-18T07:20:20;2.20;;;1.98;;
17927;SDS011;9089;58.396;15.544;2022-11-18T07:22:47;2.15;;;1.83;;
17927;SDS011;9089;58.396;15.544;2022-11-18T07:25:16;2.28;;;1.83;;
17927;SDS011;9089;58.396;15.544;2022-11-18T07:27:41;3.67;;;1.85;;
17927;SDS011;9089;58.396;15.544;2022-11-18T07:30:07;2.03;;;1.60;;
17927;SDS011;9089;58.396;15.544;2022-11-18T07:32:32;2.90;;;1.90;;
17927;SDS011;9089;58.396;15.544;2022-11-18T07:34:58;3.25;;;1.65;;
17927;SDS011;9089;58.396;15.544;2022-11-18T07:37:23;2.03;;;1.80;;
17927;SDS011;9089;58.396;15.544;2022-11-18T07:39:50;3.67;;;1.50;;
17927;SDS011;9089;58.396;15.544;2022-11-18T07:42:16;2.03;;;1.48;;
17927;SDS011;9089;58.396;15.544;2022-11-18T07:44:41;2.03;;;1.38;;
17927;SDS011;9089;58.396;15.544;2022-11-18T07:47:07;1.33;;;1.23;;
17927;SDS011;9089;58.396;15.544;2022-11-18T07:49:32;2.25;;;1.58;;
17927;SDS011;9089;58.396;15.544;2022-11-18T07:51:58;2.30;;;1.60;;
17927;SDS011;9089;58.396;15.544;2022-11-18T07:54:23;2.38;;;1.42;;
17927;SDS011;9089;58.396;15.544;2022-11-18T07:56:50;1.60;;;1.50;;
17927;SDS011;9089;58.396;15.544;2022-11-18T07:59:15;2.90;;;1.35;;
17927;SDS011;9089;58.396;15.544;2022-11-18T08:01:41;2.88;;;1.60;;
17927;SDS011;9089;58.396;15.544;2022-11-18T08:04:07;1.75;;;1.40;;
17927;SDS011;9089;58.396;15.544;2022-11-18T08:06:33;2.20;;;1.30;;
17927;SDS011;9089;58.396;15.544;2022-11-18T08:08:59;2.95;;;1.38;;
17927;SDS011;9089;58.396;15.544;2022-11-18T08:11:24;1.63;;;1.50;;
17927;SDS011;9089;58.396;15.544;2022-11-18T08:13:51;1.40;;;1.27;;
17927;SDS011;9089;58.396;15.544;2022-11-18T08:16:17;1.63;;;1.17;;
17927;SDS011;9089;58.396;15.544;2022-11-18T08:18:43;2.13;;;1.65;;
17927;SDS011;9089;58.396;15.544;2022-11-18T08:21:09;2.38;;;1.25;;
17927;SDS011;9089;58.396;15.544;2022-11-18T08:23:34;1.77;;;1.52;;
17927;SDS011;9089;58.396;15.544;2022-11-18T08:26:00;1.85;;;1.52;;
17927;SDS011;9089;58.396;15.544;2022-11-18T08:28:26;3.03;;;2.10;;
17927;SDS011;9089;58.396;15.544;2022-11-18T08:30:53;1.70;;;1.60;;
17927;SDS011;9089;58.396;15.544;2022-11-18T08:33:19;1.90;;;1.80;;
17927;SDS011;9089;58.396;15.544;2022-11-18T08:35:44;2.15;;;1.95;;
17927;SDS011;9089;58.396;15.544;2022-11-18T08:38:10;1.90;;;1.70;;
17927;SDS011;9089;58.396;15.544;2022-11-18T08:40:35;2.05;;;1.60;;
17927;SDS011;9089;58.396;15.544;2022-11-18T08:43:00;1.73;;;1.63;;
17927;SDS011;9089;58.396;15.544;2022-11-18T08:45:26;3.28;;;1.70;;
17927;SDS011;9089;58.396;15.544;2022-11-18T08:47:53;2.00;;;1.80;;
17927;SDS011;9089;58.396;15.544;2022-11-18T08:50:18;2.08;;;1.88;;
17927;SDS011;9089;58.396;15.544;2022-11-18T08:52:44;3.30;;;2.20;;
17927;SDS011;9089;58.396;15.544;2022-11-18T08:55:09;2.78;;;2.22;;
17927;SDS011;9089;58.396;15.544;2022-11-18T08:57:35;1.98;;;1.77;;
17927;SDS011;9089;58.396;15.544;2022-11-18T09:00:00;2.00;;;1.80;;
17927;SDS011;9089;58.396;15.544;2022-11-18T09:02:26;2.40;;;2.20;;
17927;SDS011;9089;58.396;15.544;2022-11-18T09:04:52;2.72;;;2.28;;
17927;SDS011;9089;58.396;15.544;2022-11-18T09:07:18;3.95;;;2.05;;
17927;SDS011;9089;58.396;15.544;2022-11-18T09:09:44;2.20;;;1.90;;
17927;SDS011;9089;58.396;15.544;2022-11-18T09:12:09;3.53;;;2.28;;
17927;SDS011;9089;58.396;15.544;2022-11-18T09:14:40;3.28;;;1.92;;
17927;SDS011;9089;58.396;15.544;2022-11-18T09:17:05;2.35;;;1.98;;
17927;SDS011;9089;58.396;15.544;2022-11-18T09:19:31;2.30;;;1.90;;
17927;SDS011;9089;58.396;15.544;2022-11-18T09:21:57;3.38;;;1.90;;
17927;SDS011;9089;58.396;15.544;2022-11-18T09:24:23;2.38;;;1.90;;
17927;SDS011;9089;58.396;15.544;2022-11-18T09:26:48;2.33;;;1.70;;
17927;SDS011;9089;58.396;15.544;2022-11-18T09:29:14;2.08;;;1.60;;
17927;SDS011;9089;58.396;15.544;2022-11-18T09:31:39;1.70;;;1.60;;
17927;SDS011;9089;58.396;15.544;2022-11-18T09:34:05;2.47;;;1.63;;
17927;SDS011;9089;58.396;15.544;2022-11-18T09:36:30;2.17;;;1.80;;
17927;SDS011;9089;58.396;15.544;2022-11-18T09:38:57;1.55;;;1.30;;
17927;SDS011;9089;58.396;15.544;2022-11-18T09:41:28;2.17;;;1.70;;
17927;SDS011;9089;58.396;15.544;2022-11-18T09:43:59;2.10;;;1.65;;
17927;SDS011;9089;58.396;15.544;2022-11-18T09:46:28;2.47;;;1.88;;
17927;SDS011;9089;58.396;15.544;2022-11-18T09:48:57;3.08;;;1.70;;
17927;SDS011;9089;58.396;15.544;2022-11-18T09:51:38;2.13;;;1.92;;
17927;SDS011;9089;58.396;15.544;2022-11-18T09:54:07;2.83;;;1.80;;
17927;SDS011;9089;58.396;15.544;2022-11-18T09:56:34;2.63;;;1.90;;
17927;SDS011;9089;58.396;15.544;2022-11-18T09:58:59;3.03;;;1.52;;
17927;SDS011;9089;58.396;15.544;2022-11-18T10:01:25;3.25;;;2.00;;
17927;SDS011;9089;58.396;15.544;2022-11-18T10:03:51;3.15;;;1.80;;
17927;SDS011;9089;58.396;15.544;2022-11-18T10:06:19;1.65;;;1.55;;
17927;SDS011;9089;58.396;15.544;2022-11-18T10:08:50;1.88;;;1.67;;
17927;SDS011;9089;58.396;15.544;2022-11-18T10:11:22;1.77;;;1.60;;
17927;SDS011;9089;58.396;15.544;2022-11-18T10:13:50;2.67;;;1.75;;
17927;SDS011;9089;58.396;15.544;2022-11-18T10:16:21;3.60;;;1.92;;
17927;SDS011;9089;58.396;15.544;2022-11-18T10:18:49;3.38;;;1.90;;
17927;SDS011;9089;58.396;15.544;2022-11-18T10:21:17;3.92;;;1.90;;
17927;SDS011;9089;58.396;15.544;2022-11-18T10:23:49;2.67;;;1.50;;
17927;SDS011;9089;58.396;15.544;2022-11-18T10:26:30;3.30;;;1.83;;
17927;SDS011;9089;58.396;15.544;2022-11-18T10:28:56;2.42;;;2.13;;
17927;SDS011;9089;58.396;15.544;2022-11-18T10:31:22;2.25;;;1.90;;
17927;SDS011;9089;58.396;15.544;2022-11-18T10:33:47;2.15;;;1.95;;
17927;SDS011;9089;58.396;15.544;2022-11-18T10:36:25;2.45;;;1.70;;
17927;SDS011;9089;58.396;15.544;2022-11-18T10:41:37;3.03;;;1.83;;
17927;SDS011;9089;58.396;15.544;2022-11-18T10:44:04;2.83;;;1.92;;
17927;SDS011;9089;58.396;15.544;2022-11-18T10:46:30;2.13;;;1.52;;
17927;SDS011;9089;58.396;15.544;2022-11-18T10:49:10;1.48;;;1.38;;
17927;SDS011;9089;58.396;15.544;2022-11-18T10:51:36;1.55;;;1.15;;
17927;SDS011;9089;58.396;15.544;2022-11-18T10:54:05;1.60;;;1.33;;
17927;SDS011;9089;58.396;15.544;2022-11-18T10:56:34;1.77;;;1.25;;
17927;SDS011;9089;58.396;15.544;2022-11-18T10:59:10;1.50;;;1.40;;
17927;SDS011;9089;58.396;15.544;2022-11-18T11:01:41;1.00;;;1.00;;
17927;SDS011;9089;58.396;15.544;2022-11-18T11:04:10;1.38;;;1.27;;
17927;SDS011;9089;58.396;15.544;2022-11-18T11:06:37;0.80;;;0.80;;
17927;SDS011;9089;58.396;15.544;2022-11-18T11:09:04;1.33;;;0.85;;
17927;SDS011;9089;58.396;15.544;2022-11-18T11:11:30;1.20;;;1.10;;
17927;SDS011;9089;58.396;15.544;2022-11-18T11:13:59;1.05;;;0.95;;
17927;SDS011;9089;58.396;15.544;2022-11-18T11:16:27;1.35;;;1.10;;
17927;SDS011;9089;58.396;15.544;2022-11-18T11:18:55;2.80;;;1.27;;
17927;SDS011;9089;58.396;15.544;2022-11-18T11:21:24;1.48;;;1.25;;
17927;SDS011;9089;58.396;15.544;2022-11-18T11:23:52;3.30;;;1.23;;
17927;SDS011;9089;58.396;15.544;2022-11-18T11:26:18;1.30;;;1.20;;
17927;SDS011;9089;58.396;15.544;2022-11-18T11:28:47;2.45;;;1.20;;
17927;SDS011;9089;58.396;15.544;2022-11-18T11:31:18;1.30;;;0.90;;
17927;SDS011;9089;58.396;15.544;2022-11-18T11:33:48;1.50;;;1.10;;
17927;SDS011;9089;58.396;15.544;2022-11-18T11:36:20;2.25;;;1.20;;
17927;SDS011;9089;58.396;15.544;2022-11-18T11:38:53;1.13;;;1.10;;
17927;SDS011;9089;58.396;15.544;2022-11-18T11:41:21;1.40;;;1.30;;
17927;SDS011;9089;58.396;15.544;2022-11-18T11:43:50;1.35;;;1.20;;
17927;SDS011;9089;58.396;15.544;2022-11-18T11:46:22;2.28;;;1.10;;
17927;SDS011;9089;58.396;15.544;2022-11-18T11:48:54;1.38;;;1.27;;
17927;SDS011;9089;58.396;15.544;2022-11-18T11:51:23;1.40;;;1.30;;
17927;SDS011;9089;58.396;15.544;2022-11-18T11:53:53;1.52;;;1.40;;
17927;SDS011;9089;58.396;15.544;2022-11-18T11:56:22;4.40;;;1.20;;
17927;SDS011;9089;58.396;15.544;2022-11-18T11:58:55;1.33;;;1.10;;
17927;SDS011;9089;58.396;15.544;2022-11-18T12:01:25;1.58;;;1.17;;
17927;SDS011;9089;58.396;15.544;2022-11-18T12:03:52;1.75;;;1.27;;
17927;SDS011;9089;58.396;15.544;2022-11-18T12:06:21;2.97;;;1.50;;
17927;SDS011;9089;58.396;15.544;2022-11-18T12:08:55;1.38;;;1.13;;
17927;SDS011;9089;58.396;15.544;2022-11-18T12:11:26;2.08;;;1.30;;
17927;SDS011;9089;58.396;15.544;2022-11-18T12:13:55;3.20;;;1.50;;
17927;SDS011;9089;58.396;15.544;2022-11-18T12:16:24;0.98;;;0.90;;
17927;SDS011;9089;58.396;15.544;2022-11-18T12:18:53;1.77;;;1.42;;
17927;SDS011;9089;58.396;15.544;2022-11-18T12:24:25;1.95;;;1.10;;
17927;SDS011;9089;58.396;15.544;2022-11-18T12:26:55;1.85;;;1.23;;
17927;SDS011;9089;58.396;15.544;2022-11-18T12:29:21;1.50;;;1.20;;
17927;SDS011;9089;58.396;15.544;2022-11-18T12:31:48;1.17;;;1.08;;
17927;SDS011;9089;58.396;15.544;2022-11-18T12:34:32;3.65;;;1.27;;
17927;SDS011;9089;58.396;15.544;2022-11-18T12:39:57;1.52;;;1.33;;
17927;SDS011;9089;58.396;15.544;2022-11-18T12:42:37;1.23;;;1.13;;
17927;SDS011;9089;58.396;15.544;2022-11-18T12:48:33;1.95;;;0.90;;
17927;SDS011;9089;58.396;15.544;2022-11-18T12:50:59;1.67;;;1.08;;
17927;SDS011;9089;58.396;15.544;2022-11-18T12:53:32;1.95;;;1.10;;
17927;SDS011;9089;58.396;15.544;2022-11-18T12:56:00;2.25;;;1.20;;
17927;SDS011;9089;58.396;15.544;2022-11-18T12:58:33;2.70;;;1.00;;
17927;SDS011;9089;58.396;15.544;2022-11-18T13:01:06;1.27;;;1.17;;
17927;SDS011;9089;58.396;15.544;2022-11-18T13:03:32;1.95;;;1.17;;
17927;SDS011;9089;58.396;15.544;2022-11-18T13:05:59;1.30;;;1.15;;
17927;SDS011;9089;58.396;15.544;2022-11-18T13:08:26;1.85;;;1.20;;
17927;SDS011;9089;58.396;15.544;2022-11-18T13:10:53;2.83;;;1.50;;
17927;SDS011;9089;58.396;15.544;2022-11-18T13:13:43;2.00;;;1.30;;
17927;SDS011;9089;58.396;15.544;2022-11-18T13:16:13;1.02;;;0.93;;
17927;SDS011;9089;58.396;15.544;2022-11-18T13:19:00;4.93;;;1.52;;
17927;SDS011;9089;58.396;15.544;2022-11-18T13:21:26;1.90;;;1.33;;
17927;SDS011;9089;58.396;15.544;2022-11-18T13:24:10;1.60;;;1.27;;
17927;SDS011;9089;58.396;15.544;2022-11-18T13:26:37;1.30;;;1.20;;
17927;SDS011;9089;58.396;15.544;2022-11-18T13:29:13;2.50;;;1.25;;
17927;SDS011;9089;58.396;15.544;2022-11-18T13:31:41;1.63;;;1.45;;
17927;SDS011;9089;58.396;15.544;2022-11-18T13:34:11;1.30;;;1.20;;
17927;SDS011;9089;58.396;15.544;2022-11-18T13:36:41;1.38;;;1.27;;
17927;SDS011;9089;58.396;15.544;2022-11-18T13:39:15;1.83;;;1.10;;
17927;SDS011;9089;58.396;15.544;2022-11-18T13:41:41;2.10;;;1.20;;
17927;SDS011;9089;58.396;15.544;2022-11-18T13:44:14;1.25;;;1.02;;
17927;SDS011;9089;58.396;15.544;2022-11-18T13:46:39;1.10;;;1.00;;
17927;SDS011;9089;58.396;15.544;2022-11-18T13:49:09;1.15;;;1.05;;
17927;SDS011;9089;58.396;15.544;2022-11-18T13:51:38;0.95;;;0.90;;
17927;SDS011;9089;58.396;15.544;2022-11-18T13:54:03;2.90;;;1.02;;
17927;SDS011;9089;58.396;15.544;2022-11-18T13:56:29;5.03;;;1.75;;
17927;SDS011;9089;58.396;15.544;2022-11-18T13:58:57;1.17;;;1.08;;
17927;SDS011;9089;58.396;15.544;2022-11-18T14:01:26;1.88;;;1.10;;
17927;SDS011;9089;58.396;15.544;2022-11-18T14:03:53;1.33;;;1.20;;
17927;SDS011;9089;58.396;15.544;2022-11-18T14:06:25;1.13;;;1.02;;
17927;SDS011;9089;58.396;15.544;2022-11-18T14:08:50;2.08;;;1.25;;
17927;SDS011;9089;58.396;15.544;2022-11-18T14:11:36;1.52;;;1.20;;
17927;SDS011;9089;58.396;15.544;2022-11-18T14:14:02;2.47;;;1.20;;
17927;SDS011;9089;58.396;15.544;2022-11-18T14:16:33;1.10;;;1.02;;
17927;SDS011;9089;58.396;15.544;2022-11-18T14:18:59;3.45;;;1.20;;
17927;SDS011;9089;58.396;15.544;2022-11-18T14:21:25;1.10;;;1.00;;
17927;SDS011;9089;58.396;15.544;2022-11-18T14:23:51;1.65;;;1.45;;
17927;SDS011;9089;58.396;15.544;2022-11-18T14:26:25;1.10;;;1.00;;
17927;SDS011;9089;58.396;15.544;2022-11-18T14:28:52;1.35;;;1.00;;
17927;SDS011;9089;58.396;15.544;2022-11-18T14:31:20;1.67;;;0.98;;
17927;SDS011;9089;58.396;15.544;2022-11-18T14:36:41;1.70;;;1.10;;
17927;SDS011;9089;58.396;15.544;2022-11-18T14:39:11;1.20;;;1.10;;
17927;SDS011;9089;58.396;15.544;2022-11-18T14:41:36;1.10;;;1.02;;
17927;SDS011;9089;58.396;15.544;2022-11-18T14:44:11;1.10;;;1.00;;
17927;SDS011;9089;58.396;15.544;2022-11-18T14:46:37;1.35;;;1.00;;
17927;SDS011;9089;58.396;15.544;2022-11-18T14:49:03;1.20;;;1.10;;
17927;SDS011;9089;58.396;15.544;2022-11-18T14:51:30;2.38;;;1.13;;
17927;SDS011;9089;58.396;15.544;2022-11-18T14:53:57;0.90;;;0.90;;
17927;SDS011;9089;58.396;15.544;2022-11-18T14:56:23;1.10;;;1.00;;
17927;SDS011;9089;58.396;15.544;2022-11-18T14:58:50;1.95;;;1.08;;
17927;SDS011;9089;58.396;15.544;2022-11-18T15:01:16;1.20;;;1.08;;
17927;SDS011;9089;58.396;15.544;2022-11-18T15:03:41;2.55;;;0.90;;
17927;SDS011;9089;58.396;15.544;2022-11-18T15:06:09;2.53;;;1.20;;
17927;SDS011;9089;58.396;15.544;2022-11-18T15:08:36;1.23;;;1.13;;